Coroico, Bolivia
Current Conditions -  °F | °C
As of 7:00 PM on Wednesday 22 Oct 2014 (Local Time) from SLLP Reporting Station
Thunderstorm Thunderstorm  
Wind Chill: 50°   Ceiling: 20000
Heat Index: 50°   Visibility: 6mi
Dew Point: 39°   Wind: 8mph
Humidity: 66%   Direction: 260°W
Pressure: 30.62"   Gusts: NA
Location:  16.19°S, 67.72°W
Report Text: SLLP 222300Z 26007KT 9999 VCTS SCT015 FEW017CB SCT070 BKN200 10/04 Q1037
Loading
Personal Weather Stations






























Interactive Weather Map
Tropical Storm Tracking
New forecast layout! Learn more

10-Day Weather Forecast

Advertisements
Track Severe Weather on mobile